powered by Meteolive.it
Dati meteo   Attuali  Passati Ogni 3 ore 7 Giorni 15 Giorni Avvisi Meteo Mappe meteo
Palermo / Punta Raisi, Italy
Alba: 6:55 AM UTC1
Tramonto: 5:47 PM UTC1
 Lat: 38.17N, Lon: 13.08E
ICAO Usato: LICJ
Condizioni Meteo Attuali Aggiornate: 19.02.2018 alle 06:20 LT
Parz Nuvoloso
Parz Nuvoloso
Parz Nuvoloso
N/D
Temp: 13°C
Umidita': 72%
Direz/Vel. Vento: W 16 KTS raffiche
Pressione: 1012 hPa
Punto di rugiada: 8°C
Temperatura percepita: 12°C
Visibilitą: >10 KM (ottima)
Temperatura percepita in
presenza di vento (Wind Chill)
:
10°C
T. max (ultime 24 ore): 13°C
T. min (ultime 24 ore): 13°C


METAR ORIGINALE
LICJ 190420Z 27016KT 9999 SCT015 13/08 Q1012